Date,TemperatureHighF,TemperatureAvgF,TemperatureLowF,DewpointHighF,DewpointAvgF,DewpointLowF,HumidityHigh,HumidityAvg,HumidityLow,PressureMaxIn,PressureMinIn,WindSpeedMaxMPH,WindSpeedAvgMPH,GustSpeedMaxMPH,PrecipitationSumIn
2013-2-1,19.8,10.6,1.8,12.9,3.0,-3.4,85,71,54,30.27,30.04,7,4,19,0.00
2013-2-2,27.9,20.3,12.9,23.8,17.1,8.3,93,87,80,30.12,29.90,5,2,14,0.00
2013-2-3,28.6,17.4,10.0,16.6,10.8,4.4,84,75,55,30.12,29.87,8,2,21,0.00
2013-2-4,30.0,24.2,19.8,23.7,20.4,16.0,90,85,75,30.11,29.71,3,1,12,0.00
2013-2-5,32.2,26.3,16.2,29.1,22.8,13.8,92,87,78,30.02,29.76,7,2,16,0.00
2013-2-6,43.2,32.1,19.8,27.6,23.7,15.9,86,72,50,30.21,30.03,5,2,15,0.06
2013-2-7,46.9,35.4,28.9,36.2,30.4,25.6,90,82,65,30.10,28.94,5,1,15,0.26
2013-2-8,34.5,30.3,27.7,30.2,26.8,24.4,93,87,76,30.35,28.98,6,2,20,0.00
2013-2-9,41.9,32.2,27.3,29.7,25.8,22.5,90,78,60,30.37,30.11,5,2,14,0.02
2013-2-10,49.8,41.8,30.7,46.4,38.3,25.0,92,87,76,30.11,29.56,9,4,29,0.17
2013-2-11,48.9,36.9,29.7,43.0,28.5,22.1,80,71,68,30.00,29.57,11,7,34,0.01
2013-2-12,32.2,27.8,19.9,24.0,21.3,17.3,90,76,70,30.09,29.92,8,3,22,0.00
2013-2-13,50.0,32.5,19.0,34.5,26.4,16.9,94,80,53,29.93,29.72,6,2,17,0.00
2013-2-14,43.0,36.3,30.9,33.8,28.7,21.6,89,74,57,29.96,29.68,7,4,23,0.00
2013-2-15,36.7,30.2,24.4,25.5,19.7,11.5,85,66,43,30.15,29.96,5,2,14,0.01
2013-2-16,25.9,18.6,13.1,18.4,8.8,3.5,83,66,45,30.14,30.08,8,3,17,0.00
2013-2-17,34.9,21.8,9.7,14.9,7.6,2.1,73,56,31,30.19,30.05,5,2,10,0.00
2013-2-18,55.9,39.8,24.8,44.0,30.1,13.6,92,69,54,30.05,29.46,12,5,30,0.27
2013-2-19,34.0,18.0,12.9,31.4,11.6,5.8,90,75,66,30.12,29.54,9,3,103,0.01
2013-2-20,30.4,18.2,9.7,17.5,9.8,2.7,80,70,49,30.31,30.12,6,3,15,0.00
2013-2-21,27.3,25.5,22.6,21.4,19.3,17.7,88,77,71,30.33,29.99,10,4,36,0.00
2013-2-22,33.6,28.0,21.7,31.2,24.8,19.3,93,88,76,29.99,29.82,10,4,30,0.00
2013-2-23,37.4,28.4,23.9,34.5,22.1,18.1,91,77,58,29.92,29.41,14,5,35,0.02
2013-2-24,43.0,24.6,15.6,23.1,17.4,12.5,88,75,45,30.08,29.84,6,3,16,0.04
2013-2-25,48.2,28.5,19.2,30.3,21.9,16.4,90,78,48,30.14,29.92,9,2,22,0.00
2013-2-26,34.0,32.8,31.8,31.2,28.3,23.8,92,84,66,29.92,29.45,15,5,36,0.38
2013-2-27,36.7,33.2,32.2,34.2,31.2,29.9,94,92,90,29.62,29.45,6,1,17,0.31
2013-2-28,38.3,33.1,29.8,34.8,30.6,27.2,94,90,83,29.97,29.62,7,2,23,0.40